Time;durP1;ratioP1;P1;durP2;ratioP2;P2;SDS_P1;SDS_P2;PMS_P1;PMS_P2;Temp;Humidity;BMP_temperature;BMP_pressure;BME280_temperature;BME280_humidity;BME280_pressure;Samples;Min_cycle;Max_cycle;Signal;HPM_P1;HPM_P2
2023/07/06 00:01:04;;;;;;;13.85;6.63;;;;;;;12.48;100.00;101391.66;5032556;28;20032;-95
2023/07/06 00:03:33;;;;;;;9.32;5.68;;;;;;;12.72;100.00;101440.50;5033538;28;20021;-96
2023/07/06 00:05:59;;;;;;;11.20;6.22;;;;;;;12.59;100.00;101415.97;5033431;28;20030;-95
2023/07/06 00:08:26;;;;;;;10.45;5.90;;;;;;;12.55;100.00;101419.16;5033513;28;20025;-95
2023/07/06 00:10:52;;;;;;;10.50;5.75;;;;;;;12.31;100.00;101391.00;5033028;28;20063;-95
2023/07/06 00:13:20;;;;;;;8.40;5.53;;;;;;;12.33;100.00;101394.22;5050266;28;20037;-95
2023/07/06 00:15:48;;;;;;;9.25;5.25;;;;;;;12.66;100.00;101446.94;5037934;28;20030;-95
2023/07/06 00:18:20;;;;;;;9.85;5.97;;;;;;;12.62;100.00;101442.31;5035834;28;20022;-94
2023/07/06 00:20:49;;;;;;;11.27;5.50;;;;;;;12.61;100.00;101433.44;5052322;28;20409;-95
2023/07/06 00:23:15;;;;;;;10.30;5.13;;;;;;;12.37;100.00;101411.47;5035348;28;20025;-95
2023/07/06 00:25:41;;;;;;;8.23;4.95;;;;;;;12.34;100.00;101417.34;5034035;28;20029;-94
2023/07/06 00:28:08;;;;;;;13.63;5.30;;;;;;;12.27;100.00;101418.38;5033256;28;20040;-95
2023/07/06 00:33:12;;;;;;;8.10;4.95;;;;;;;12.20;100.00;101433.91;5035038;28;20041;-94
2023/07/06 00:35:41;;;;;;;14.00;5.00;;;;;;;12.14;100.00;101428.72;5035061;28;20017;-95
2023/07/06 00:38:12;;;;;;;7.70;4.73;;;;;;;11.95;100.00;101411.03;5032940;28;20288;-94
2023/07/06 00:40:39;;;;;;;8.75;4.22;;;;;;;11.88;100.00;101413.09;5031207;28;20091;-95
2023/07/06 00:43:09;;;;;;;6.72;4.53;;;;;;;11.94;100.00;101433.59;5033822;28;20326;-95
2023/07/06 00:45:36;;;;;;;10.75;4.38;;;;;;;11.79;100.00;101406.56;5033476;28;20025;-95
2023/07/06 00:48:01;;;;;;;7.97;4.97;;;;;;;12.00;100.00;101449.81;5030976;28;20017;-94
2023/07/06 00:50:32;;;;;;;8.07;4.50;;;;;;;11.90;100.00;101440.53;5032735;28;20042;-95
2023/07/06 00:53:04;;;;;;;10.95;4.57;;;;;;;11.59;100.00;101391.84;5033168;28;20557;-94
2023/07/06 00:55:32;;;;;;;5.57;4.13;;;;;;;11.74;100.00;101411.88;5031751;28;20432;-95
2023/07/06 00:58:08;;;;;;;11.35;4.22;;;;;;;11.64;100.00;101399.16;5032432;28;20079;-94
2023/07/06 01:00:37;;;;;;;7.25;4.35;;;;;;;11.93;100.00;101440.03;5030940;28;20025;-94
2023/07/06 01:03:05;;;;;;;10.45;4.38;;;;;;;11.73;100.00;101408.41;5032666;28;20507;-94
2023/07/06 01:05:31;;;;;;;8.05;4.30;;;;;;;11.84;100.00;101422.75;5032832;28;20021;-94
2023/07/06 01:08:05;;;;;;;6.78;4.47;;;;;;;11.72;100.00;101404.09;5033115;28;20029;-94
2023/07/06 01:10:33;;;;;;;11.90;3.80;;;;;;;11.75;100.00;101413.50;5032379;28;20029;-94
2023/07/06 01:13:00;;;;;;;9.50;4.33;;;;;;;11.51;100.00;101394.97;5034271;28;20477;-92
2023/07/06 01:15:29;;;;;;;4.90;3.70;;;;;;;11.74;100.00;101430.66;5034466;28;20280;-95
2023/07/06 01:18:14;;;;;;;11.23;3.90;;;;;;;11.62;100.00;101407.47;5033087;28;20071;-95
2023/07/06 01:20:46;;;;;;;5.50;4.13;;;;;;;11.72;100.00;101436.31;5030249;28;20112;-94
2023/07/06 01:23:27;;;;;;;7.63;3.80;;;;;;;11.73;100.00;101434.41;5015160;28;20033;-94
2023/07/06 01:26:07;;;;;;;8.88;4.00;;;;;;;11.66;100.00;101431.94;5014378;28;20529;-93
2023/07/06 01:29:08;;;;;;;8.57;3.95;;;;;;;11.69;100.00;101433.28;5030629;28;20030;-94
2023/07/06 01:31:42;;;;;;;7.10;4.20;;;;;;;11.73;100.00;101445.16;5038737;28;20030;-94
2023/07/06 01:34:24;;;;;;;8.93;4.10;;;;;;;11.70;100.00;101445.66;5050646;28;20024;-95
2023/07/06 01:37:12;;;;;;;7.35;3.83;;;;;;;11.64;100.00;101445.59;5044923;28;20021;-93
2023/07/06 01:39:38;;;;;;;7.17;3.60;;;;;;;11.58;100.00;101438.53;5021085;28;20072;-95
2023/07/06 01:44:46;;;;;;;12.43;4.10;;;;;;;11.44;100.00;101421.19;5146052;22;20048;-94
2023/07/06 01:47:18;;;;;;;5.55;3.38;;;;;;;11.51;100.00;101441.41;5052319;28;20507;-95
2023/07/06 01:55:35;;;;;;;11.90;3.90;;;;;;;11.36;100.00;101431.28;5036800;28;20091;-94
2023/07/06 01:58:07;;;;;;;8.13;3.43;;;;;;;11.32;100.00;101435.53;5035040;28;20801;-94
2023/07/06 02:00:40;;;;;;;10.30;4.00;;;;;;;11.19;100.00;101425.16;5036356;28;20211;-94
2023/07/06 02:03:07;;;;;;;8.38;3.78;;;;;;;10.97;100.00;101404.47;5036837;28;20508;-95
2023/07/06 02:05:36;;;;;;;8.77;3.72;;;;;;;11.20;100.00;101442.88;5036710;28;20025;-94
2023/07/06 02:08:05;;;;;;;8.23;3.80;;;;;;;10.88;100.00;101390.66;5036716;28;20032;-94
2023/07/06 02:10:30;;;;;;;7.13;3.40;;;;;;;11.08;100.00;101428.75;5018261;28;20048;-94
2023/07/06 02:12:56;;;;;;;9.60;3.77;;;;;;;11.03;100.00;101424.94;5018732;28;20017;-94
2023/07/06 02:15:21;;;;;;;7.50;3.92;;;;;;;11.09;100.00;101433.06;5022276;28;20025;-94
2023/07/06 02:17:48;;;;;;;8.90;3.80;;;;;;;10.84;100.00;101396.75;5034593;28;20032;-95
2023/07/06 02:20:16;;;;;;;7.07;4.03;;;;;;;10.98;100.00;101422.19;5036176;28;20384;-94
2023/07/06 02:22:42;;;;;;;12.73;3.92;;;;;;;10.93;100.00;101416.75;5036117;28;20481;-94
2023/07/06 02:25:08;;;;;;;9.40;3.85;;;;;;;10.81;100.00;101400.75;5036036;28;20037;-93
2023/07/06 02:27:34;;;;;;;9.33;3.40;;;;;;;11.05;100.00;101438.09;5017200;28;20092;-93
2023/07/06 02:29:59;;;;;;;6.07;3.40;;;;;;;10.88;100.00;101404.06;5035982;28;20515;-94
2023/07/06 02:32:26;;;;;;;9.00;3.70;;;;;;;10.83;100.00;101400.50;5035710;28;20030;-95
2023/07/06 02:34:51;;;;;;;7.82;4.10;;;;;;;10.84;100.00;101397.59;5034355;28;20874;-94
2023/07/06 02:37:16;;;;;;;5.43;3.83;;;;;;;11.00;100.00;101417.38;5017184;28;20057;-95
2023/07/06 02:39:42;;;;;;;6.38;3.38;;;;;;;11.02;100.00;101434.03;5034665;28;20389;-93
2023/07/06 02:42:07;;;;;;;12.13;4.57;;;;;;;10.80;100.00;101384.91;5036015;28;20053;-94
2023/07/06 02:44:33;;;;;;;9.23;3.60;;;;;;;11.10;100.00;101435.50;5017752;28;20735;-94
2023/07/06 02:46:58;;;;;;;11.52;3.85;;;;;;;11.13;100.00;101439.56;5017835;28;20469;-94
2023/07/06 02:49:24;;;;;;;6.80;3.43;;;;;;;10.87;100.00;101396.28;5035862;28;20029;-94
2023/07/06 02:51:49;;;;;;;13.23;3.97;;;;;;;11.04;100.00;101410.47;5018432;28;20153;-95
2023/07/06 02:54:15;;;;;;;6.35;3.67;;;;;;;10.92;100.00;101391.00;5029426;28;20028;-95
2023/07/06 02:56:43;;;;;;;13.50;3.97;;;;;;;11.28;100.00;101433.59;5026686;28;20038;-94
2023/07/06 02:59:10;;;;;;;10.88;3.72;;;;;;;11.03;100.00;101403.47;5018248;28;20245;-96
2023/07/06 03:01:36;;;;;;;14.63;3.58;;;;;;;10.99;100.00;101394.31;5032328;28;20026;-94
2023/07/06 03:04:09;;;;;;;8.13;3.53;;;;;;;11.18;100.00;101416.31;5043533;28;20113;-95
2023/07/06 03:06:34;;;;;;;8.88;3.28;;;;;;;11.33;100.00;101434.47;5034970;28;20525;-94
2023/07/06 03:14:38;;;;;;;8.95;3.75;;;;;;;11.30;100.00;101418.88;5996229;22;20053;-92
2023/07/06 03:17:03;;;;;;;9.00;3.27;;;;;;;11.28;100.00;101417.50;5048880;28;20033;-93
2023/07/06 03:19:33;;;;;;;11.75;3.58;;;;;;;11.36;100.00;101431.28;5042078;28;20032;-92
2023/07/06 03:21:59;;;;;;;12.05;3.58;;;;;;;11.20;100.00;101405.31;5037132;28;20045;-93
2023/07/06 03:24:25;;;;;;;8.97;4.23;;;;;;;11.53;100.00;101457.25;5036765;28;20030;-93
2023/07/06 03:26:52;;;;;;;8.95;4.20;;;;;;;11.42;100.00;101431.38;5033279;28;20026;-93
2023/07/06 03:29:17;;;;;;;10.07;3.95;;;;;;;11.54;100.00;101442.78;5017195;28;20030;-94
2023/07/06 03:31:45;;;;;;;11.03;3.70;;;;;;;11.65;100.00;101465.19;5035424;28;20133;-93
2023/07/06 03:34:13;;;;;;;8.70;3.60;;;;;;;11.44;100.00;101429.25;5035107;28;20104;-93
2023/07/06 03:36:41;;;;;;;11.20;3.40;;;;;;;11.52;100.00;101440.34;5010860;28;20030;-93
2023/07/06 03:39:11;;;;;;;10.85;3.70;;;;;;;11.65;100.00;101459.81;5033490;28;20446;-93
2023/07/06 03:41:38;;;;;;;11.48;3.67;;;;;;;11.60;100.00;101441.78;5017027;28;20025;-93
2023/07/06 03:44:05;;;;;;;10.35;3.65;;;;;;;11.57;100.00;101453.03;5016824;28;20060;-94
2023/07/06 03:46:32;;;;;;;11.30;3.33;;;;;;;11.54;100.00;101437.41;5020811;28;20030;-93
2023/07/06 03:48:57;;;;;;;9.20;3.10;;;;;;;11.62;100.00;101458.47;4995152;28;20037;-94
2023/07/06 03:51:23;;;;;;;16.20;3.77;;;;;;;11.73;100.00;101472.84;4977814;28;20820;-94
2023/07/06 03:53:48;;;;;;;9.07;4.10;;;;;;;11.43;100.00;101419.56;4994621;28;20030;-95
2023/07/06 03:56:15;;;;;;;12.23;3.75;;;;;;;11.48;100.00;101433.06;5002092;28;20033;-93
2023/07/06 03:58:42;;;;;;;13.18;4.88;;;;;;;11.56;100.00;101445.22;5015514;28;20032;-93
2023/07/06 04:01:08;;;;;;;8.43;3.77;;;;;;;11.38;100.00;101431.06;5027865;28;20645;-96
2023/07/06 04:03:33;;;;;;;11.70;4.00;;;;;;;11.68;100.00;101474.66;4991180;28;20297;-93
2023/07/06 04:06:03;;;;;;;8.67;4.03;;;;;;;11.77;100.00;101486.56;4995321;28;20418;-93
2023/07/06 04:08:28;;;;;;;8.68;3.88;;;;;;;11.69;100.00;101477.06;5016278;28;20374;-93
2023/07/06 04:10:54;;;;;;;14.38;4.40;;;;;;;11.69;100.00;101487.81;5034159;28;20095;-95
2023/07/06 04:13:19;;;;;;;11.40;3.47;;;;;;;11.61;100.00;101480.16;5034411;28;20018;-93
2023/07/06 04:15:47;;;;;;;10.80;3.93;;;;;;;11.72;100.00;101484.63;5040538;28;20013;-94
2023/07/06 04:18:15;;;;;;;8.65;4.45;;;;;;;11.87;100.00;101504.66;5008659;28;20552;-94
2023/07/06 04:20:41;;;;;;;7.53;3.70;;;;;;;11.93;100.00;101499.09;4994888;28;20113;-93
2023/07/06 04:23:09;;;;;;;14.13;4.20;;;;;;;12.00;100.00;101492.78;5009222;28;20070;-92
2023/07/06 04:25:35;;;;;;;15.85;4.38;;;;;;;11.86;100.00;101452.84;5002216;28;20077;-95
2023/07/06 04:28:05;;;;;;;9.00;4.13;;;;;;;12.16;100.00;101499.94;5011775;28;20021;-94
2023/07/06 04:30:33;;;;;;;15.40;4.15;;;;;;;12.09;100.00;101478.66;5015052;28;20091;-95
2023/07/06 04:32:59;;;;;;;11.70;4.07;;;;;;;12.27;100.00;101500.88;4996205;28;20022;-93
2023/07/06 04:35:26;;;;;;;12.07;3.97;;;;;;;12.25;100.00;101503.78;5013981;28;20485;-94
2023/07/06 04:37:53;;;;;;;12.93;3.90;;;;;;;12.30;100.00;101507.59;5030787;28;20042;-93
2023/07/06 04:51:54;;;;;;;11.70;3.95;;;;;;;12.51;100.00;101517.50;5233221;22;20076;-94
2023/07/06 04:54:20;;;;;;;12.60;4.30;;;;;;;12.47;100.00;101502.94;5034846;28;20116;-94
2023/07/06 04:56:45;;;;;;;11.90;4.23;;;;;;;12.50;100.00;101497.06;5038915;28;20055;-94
2023/07/06 04:59:11;;;;;;;8.80;4.13;;;;;;;12.64;100.00;101497.47;5052982;28;20486;-94
2023/07/06 05:01:36;;;;;;;10.87;3.93;;;;;;;12.86;100.00;101505.44;5052216;28;20303;-94
2023/07/06 05:04:02;;;;;;;16.20;4.47;;;;;;;13.02;100.00;101509.06;5049690;28;20033;-94
2023/07/06 05:06:27;;;;;;;12.77;4.70;;;;;;;13.22;100.00;101515.69;5050255;28;20149;-94
2023/07/06 05:08:53;;;;;;;13.50;4.90;;;;;;;13.34;100.00;101507.38;5052159;28;20345;-93
2023/07/06 05:11:18;;;;;;;15.97;4.87;;;;;;;13.60;100.00;101523.72;5052394;28;20484;-94
2023/07/06 05:13:45;;;;;;;13.27;4.93;;;;;;;13.69;100.00;101524.03;5034556;28;20027;-94
2023/07/06 05:16:11;;;;;;;16.70;5.18;;;;;;;13.90;100.00;101533.03;5051256;28;20365;-93
2023/07/06 05:18:37;;;;;;;14.33;5.27;;;;;;;13.88;100.00;101529.78;5052503;28;20025;-94
2023/07/06 05:21:02;;;;;;;14.88;5.40;;;;;;;13.89;100.00;101524.16;5052168;28;20028;-95
2023/07/06 05:23:28;;;;;;;17.90;5.40;;;;;;;14.10;100.00;101535.00;5053110;28;20105;-93
2023/07/06 05:25:55;;;;;;;14.65;5.32;;;;;;;14.17;100.00;101534.75;5051008;28;20409;-94
2023/07/06 05:28:22;;;;;;;15.55;5.70;;;;;;;14.17;100.00;101524.78;5033216;28;20021;-94
2023/07/06 05:30:48;;;;;;;17.80;5.55;;;;;;;14.35;100.00;101547.75;5052773;28;20670;-94
2023/07/06 05:33:13;;;;;;;19.97;6.27;;;;;;;14.44;100.00;101544.50;5050181;28;20035;-93
2023/07/06 05:35:40;;;;;;;16.73;5.55;;;;;;;14.47;100.00;101542.13;5049058;28;20038;-93
2023/07/06 05:38:10;;;;;;;14.52;5.78;;;;;;;14.48;100.00;101529.44;5050924;28;20028;-93
2023/07/06 05:40:36;;;;;;;17.38;6.82;;;;;;;14.67;100.00;101533.22;5022993;28;20034;-93
2023/07/06 05:43:56;;;;;;;15.93;7.03;;;;;;;14.63;100.00;101501.69;5035853;28;20029;-96
2023/07/06 05:46:23;;;;;;;15.93;6.88;;;;;;;15.04;100.00;101554.88;4952378;28;20562;-92
2023/07/06 05:49:14;;;;;;;20.37;7.10;;;;;;;14.96;100.00;101497.69;4936350;29;20491;-92
2023/07/06 05:55:12;;;;;;;19.27;7.65;;;;;;;15.45;100.00;101504.31;5009524;28;20069;-93
2023/07/06 05:58:27;;;;;;;15.07;7.38;;;;;;;15.81;100.00;101557.44;4877560;29;20037;-91
2023/07/06 06:01:04;;;;;;;18.70;7.20;;;;;;;15.85;100.00;101544.19;4841732;29;20525;-91
2023/07/06 06:03:42;;;;;;;23.65;7.00;;;;;;;16.10;100.00;101558.72;4875596;29;20037;-91
2023/07/06 06:09:50;;;;;;;19.73;7.13;;;;;;;16.61;100.00;101573.88;4849384;29;20052;-91
2023/07/06 06:12:22;;;;;;;17.38;7.30;;;;;;;16.89;100.00;101574.19;4877921;29;20063;-90
2023/07/06 06:14:49;;;;;;;15.57;6.57;;;;;;;17.04;100.00;101560.56;4889258;29;20043;-92
2023/07/06 06:18:03;;;;;;;19.97;7.70;;;;;;;17.25;100.00;101577.44;4924426;29;20036;-90
2023/07/06 06:24:49;;;;;;;23.42;7.20;;;;;;;16.98;100.00;101541.94;4937219;29;20103;-94
2023/07/06 06:37:52;;;;;;;22.27;7.28;;;;;;;17.67;100.00;101577.03;4994736;28;20038;-94
2023/07/06 06:43:05;;;;;;;21.27;7.15;;;;;;;17.47;100.00;101572.66;5001176;28;20037;-95
2023/07/06 06:45:36;;;;;;;15.65;7.22;;;;;;;17.19;100.00;101551.50;5021355;28;20026;-94
2023/07/06 06:48:02;;;;;;;16.65;8.25;;;;;;;17.35;100.00;101571.13;5027799;28;20103;-94
2023/07/06 06:50:30;;;;;;;18.90;7.77;;;;;;;17.66;100.00;101603.34;5035091;28;20088;-94
2023/07/06 07:17:10;;;;;;;15.77;7.38;;;;;;;19.66;99.26;101595.34;5141680;22;20073;-96
2023/07/06 07:20:28;;;;;;;;;;;;;;;;;;;;;
2023/07/06 07:28:23;;;;;;;22.80;8.10;;;;;;;18.74;99.90;101603.13;5172492;22;20076;-96
2023/07/06 07:31:42;;;;;;;15.73;8.10;;;;;;;19.29;100.00;101656.84;5050493;28;20045;-96
2023/07/06 07:34:36;;;;;;;14.73;7.82;;;;;;;19.73;98.21;101649.31;5052110;28;20030;-96
2023/07/06 11:32:08;;;;;;;6.75;2.53;;;;;;;24.73;45.22;101695.66;4990908;28;20054;-96
2023/07/06 11:35:05;;;;;;;8.10;2.75;;;;;;;25.05;47.94;101698.78;4995671;28;20066;-95
2023/07/06 11:37:38;;;;;;;7.37;2.50;;;;;;;25.61;44.25;101703.09;4992594;28;20035;-95
2023/07/06 11:40:25;;;;;;;7.43;2.70;;;;;;;25.62;43.24;101698.41;4990653;28;20298;-96
2023/07/06 11:43:10;;;;;;;3.17;2.30;;;;;;;25.52;45.02;101707.88;4982307;28;20031;-96
2023/07/06 11:46:13;;;;;;;5.35;2.45;;;;;;;25.57;46.42;101709.59;4983302;28;20121;-96
2023/07/06 11:49:02;;;;;;;6.13;2.30;;;;;;;25.72;45.15;101706.22;4996554;28;20065;-95
2023/07/06 11:51:31;;;;;;;6.43;2.45;;;;;;;25.92;43.99;101704.50;4993941;28;20031;-96
2023/07/06 11:54:01;;;;;;;9.48;2.92;;;;;;;25.88;44.27;101713.78;4990368;28;20248;-95
2023/07/06 11:56:35;;;;;;;5.50;2.95;;;;;;;25.69;46.86;101715.13;4987041;28;20030;-96
2023/07/06 11:59:04;;;;;;;6.68;3.00;;;;;;;25.61;45.66;101705.84;4988919;28;20054;-96
2023/07/06 12:04:22;;;;;;;6.53;2.97;;;;;;;25.68;45.21;101697.06;4992673;28;20031;-96
2023/07/06 12:06:48;;;;;;;5.53;3.30;;;;;;;25.28;46.60;101705.84;5028129;23;20307;-95
2023/07/06 12:09:31;;;;;;;6.85;2.38;;;;;;;25.27;49.87;101674.06;4955833;29;20024;-96
2023/07/06 12:12:08;;;;;;;4.97;2.30;;;;;;;25.91;46.33;101697.41;4954467;29;20024;-94
2023/07/06 12:14:55;;;;;;;4.78;2.50;;;;;;;26.40;44.13;101682.88;4945928;28;20048;-94
2023/07/06 12:17:23;;;;;;;5.25;2.58;;;;;;;26.36;41.22;101698.47;4954124;28;20020;-95
2023/07/06 12:19:57;;;;;;;5.13;2.30;;;;;;;25.97;42.77;101704.28;4952030;29;20027;-94
2023/07/06 12:22:23;;;;;;;4.15;2.30;;;;;;;25.71;42.68;101704.59;4958177;28;20036;-93
2023/07/06 12:24:51;;;;;;;6.63;2.50;;;;;;;25.87;43.42;101712.16;4956649;29;20041;-94
2023/07/06 12:27:18;;;;;;;6.63;2.53;;;;;;;25.98;42.01;101708.63;4956993;28;20291;-96
2023/07/06 12:29:45;;;;;;;4.97;2.25;;;;;;;25.97;42.93;101696.06;4959079;28;20027;-94
2023/07/06 12:32:16;;;;;;;7.25;2.30;;;;;;;26.00;43.56;101711.84;4948430;29;20059;-94
2023/07/06 12:34:46;;;;;;;6.40;2.90;;;;;;;25.89;43.67;101701.66;4940450;29;20036;-96
2023/07/06 12:37:14;;;;;;;4.43;2.03;;;;;;;25.94;44.25;101690.44;4943219;28;20039;-94
2023/07/06 12:39:43;;;;;;;5.38;2.53;;;;;;;26.35;42.32;101696.84;4938941;29;20028;-96
2023/07/06 12:42:13;;;;;;;4.38;2.30;;;;;;;26.82;39.32;101705.72;4938549;29;20031;-95
2023/07/06 12:44:43;;;;;;;5.35;2.63;;;;;;;26.58;39.64;101712.84;4939100;29;20110;-95
2023/07/06 12:47:52;;;;;;;4.88;2.63;;;;;;;26.28;41.07;101700.19;4935036;29;20047;-95
2023/07/06 12:50:52;;;;;;;4.63;2.30;;;;;;;26.06;42.63;101684.97;4922048;29;20040;-95
2023/07/06 12:53:37;;;;;;;4.93;2.20;;;;;;;25.91;42.18;101685.66;4923851;29;20287;-94
2023/07/06 12:56:09;;;;;;;5.57;2.28;;;;;;;25.96;42.85;101688.16;4918513;29;20039;-94
2023/07/06 12:58:36;;;;;;;3.88;2.10;;;;;;;25.93;43.05;101672.38;4918747;29;20029;-95
2023/07/06 13:01:03;;;;;;;5.50;2.55;;;;;;;25.89;41.70;101683.22;4919693;29;20091;-94
2023/07/06 13:04:09;;;;;;;3.78;2.30;;;;;;;26.03;43.87;101701.28;4925452;29;20073;-96
2023/07/06 13:06:52;;;;;;;4.00;2.30;;;;;;;25.87;42.69;101698.44;4930573;29;20032;-96
2023/07/06 13:09:28;;;;;;;4.40;2.17;;;;;;;25.78;42.22;101676.59;4926075;29;20024;-93
2023/07/06 13:11:56;;;;;;;3.60;2.15;;;;;;;26.71;40.73;101689.69;4925819;29;20047;-92
2023/07/06 13:14:23;;;;;;;3.60;2.30;;;;;;;27.42;39.15;101699.47;4927192;29;20100;-95
2023/07/06 13:16:56;;;;;;;4.87;2.17;;;;;;;28.18;39.66;101702.19;4926350;29;20096;-94
2023/07/06 13:19:25;;;;;;;6.43;2.63;;;;;;;28.41;37.67;101680.25;4930913;29;20304;-95
2023/07/06 13:21:55;;;;;;;4.97;2.70;;;;;;;28.62;37.21;101689.38;4939210;29;20517;-95
2023/07/06 13:24:22;;;;;;;4.85;2.10;;;;;;;28.69;35.01;101695.00;4938128;29;20063;-95
2023/07/06 13:26:50;;;;;;;4.03;2.53;;;;;;;28.72;35.45;101680.50;4939409;29;20021;-94
2023/07/06 13:29:16;;;;;;;3.38;2.10;;;;;;;28.42;32.53;101670.06;4953075;28;20423;-96
2023/07/06 13:31:45;;;;;;;3.35;1.80;;;;;;;28.55;33.80;101690.81;4956821;28;20031;-95
2023/07/06 13:34:14;;;;;;;3.10;2.00;;;;;;;28.63;31.19;101694.50;4974067;28;20117;-95
2023/07/06 13:36:42;;;;;;;5.28;2.25;;;;;;;28.26;32.70;101694.88;4957871;28;20047;-95
2023/07/06 13:39:07;;;;;;;5.03;2.85;;;;;;;28.29;35.12;101693.41;4957929;28;20015;-94
2023/07/06 13:41:36;;;;;;;6.83;3.07;;;;;;;28.18;36.10;101698.66;4958259;28;20033;-95
2023/07/06 13:52:24;;;;;;;6.32;2.83;;;;;;;27.56;36.25;101668.81;5235370;23;20424;-94
2023/07/06 13:54:50;;;;;;;3.95;2.47;;;;;;;27.46;36.89;101689.41;4965887;28;20026;-93
2023/07/06 13:57:21;;;;;;;7.73;2.50;;;;;;;27.14;37.46;101645.31;4967619;28;20023;-94
2023/07/06 13:59:47;;;;;;;4.00;2.53;;;;;;;27.63;35.66;101653.28;4967877;28;20062;-96
2023/07/06 14:05:14;;;;;;;4.70;2.37;;;;;;;27.56;36.47;101650.38;4104487;26;20047;-95
2023/07/06 14:07:42;;;;;;;5.77;2.70;;;;;;;27.82;36.54;101671.03;4984106;28;20290;-94
2023/07/06 14:10:09;;;;;;;7.85;2.75;;;;;;;28.06;34.34;101666.47;4985808;28;20026;-96
2023/07/06 14:12:57;;;;;;;4.10;2.15;;;;;;;28.52;36.44;101694.28;4978248;28;20098;-95
2023/07/06 14:15:23;;;;;;;5.60;2.90;;;;;;;28.41;34.36;101665.69;4962324;28;20039;-94
2023/07/06 14:28:10;;;;;;;4.53;2.28;;;;;;;26.78;36.24;101658.06;5172631;23;20062;-94
2023/07/06 14:30:36;;;;;;;4.47;2.65;;;;;;;26.14;35.46;101639.31;4992446;28;20054;-94
2023/07/06 14:33:07;;;;;;;4.18;2.45;;;;;;;25.88;37.04;101662.41;4992703;28;20034;-95
2023/07/06 14:35:35;;;;;;;5.05;2.40;;;;;;;25.77;39.45;101670.28;4989916;28;20035;-94
2023/07/06 14:38:01;;;;;;;5.53;2.40;;;;;;;26.55;38.05;101677.81;4986341;28;20035;-94
2023/07/06 14:40:26;;;;;;;5.25;2.45;;;;;;;27.51;36.17;101678.94;4985438;28;20062;-93
2023/07/06 14:42:54;;;;;;;6.10;2.70;;;;;;;28.29;35.96;101696.94;4984227;28;20438;-94
2023/07/06 14:45:20;;;;;;;5.57;2.63;;;;;;;28.61;35.70;101676.75;4981582;28;20042;-95
2023/07/06 14:47:45;;;;;;;5.93;2.88;;;;;;;29.04;33.43;101683.13;4984058;28;20045;-95
2023/07/06 14:50:11;;;;;;;7.13;2.43;;;;;;;29.19;32.58;101681.44;4983951;28;20034;-94
2023/07/06 14:52:37;;;;;;;7.65;2.55;;;;;;;29.16;33.24;101680.22;4982163;28;20022;-94
2023/07/06 14:55:09;;;;;;;5.10;2.77;;;;;;;29.22;33.25;101679.91;4985371;28;20022;-93
2023/07/06 14:57:35;;;;;;;5.63;2.92;;;;;;;29.08;34.05;101684.00;4991563;28;20011;-94
2023/07/06 15:00:00;;;;;;;4.95;2.50;;;;;;;29.09;34.57;101654.47;4998315;28;20010;-94
2023/07/06 15:02:27;;;;;;;4.78;3.08;;;;;;;28.81;34.82;101683.09;4988764;28;20031;-95
2023/07/06 15:04:57;;;;;;;5.60;2.70;;;;;;;28.08;35.73;101686.19;4973714;28;20111;-93
2023/07/06 15:07:24;;;;;;;4.40;2.37;;;;;;;27.73;36.03;101675.94;4961553;29;20295;-95
2023/07/06 15:09:52;;;;;;;4.65;2.15;;;;;;;28.35;36.28;101684.47;4966667;28;20098;-94
2023/07/06 15:12:18;;;;;;;3.42;2.30;;;;;;;27.84;34.32;101654.94;4964726;28;20035;-96
2023/07/06 15:22:38;;;;;;;3.57;2.00;;;;;;;27.00;36.17;101673.22;5225511;23;20109;-94
2023/07/06 15:25:05;;;;;;;4.47;2.20;;;;;;;27.09;35.85;101667.56;4981247;28;20293;-93
2023/07/06 15:27:30;;;;;;;3.92;2.40;;;;;;;27.85;34.19;101655.75;4982118;28;20058;-94
2023/07/06 15:29:56;;;;;;;5.07;2.28;;;;;;;29.16;32.41;101662.84;4982904;28;20034;-93
2023/07/06 15:32:24;;;;;;;4.63;2.03;;;;;;;29.72;30.03;101653.22;4980876;28;20053;-94
2023/07/06 15:34:50;;;;;;;6.60;2.42;;;;;;;30.24;29.47;101640.94;4981753;28;20034;-94
2023/07/06 15:37:16;;;;;;;4.55;2.35;;;;;;;30.73;29.86;101666.84;4976734;28;20027;-94
2023/07/06 15:39:42;;;;;;;6.10;2.70;;;;;;;30.11;29.80;101648.66;4960838;28;20035;-94
2023/07/06 15:42:07;;;;;;;4.00;2.30;;;;;;;30.24;31.09;101660.28;4960765;28;20066;-94
2023/07/06 15:44:33;;;;;;;4.37;2.37;;;;;;;30.47;29.15;101647.16;4958367;28;20031;-96
2023/07/06 15:46:58;;;;;;;3.22;2.08;;;;;;;29.99;29.13;101642.19;4974079;28;20035;-93
2023/07/06 15:49:25;;;;;;;4.37;2.37;;;;;;;29.38;32.29;101647.53;4977221;28;20043;-94
2023/07/06 15:51:50;;;;;;;4.35;2.30;;;;;;;28.44;33.29;101640.19;4977265;28;20038;-94
2023/07/06 15:54:16;;;;;;;6.13;2.50;;;;;;;27.73;33.51;101638.19;4975233;28;20027;-94
2023/07/06 15:56:42;;;;;;;3.53;2.10;;;;;;;27.18;34.12;101637.97;4975478;28;20778;-94
2023/07/06 15:59:10;;;;;;;5.90;2.40;;;;;;;26.85;35.15;101622.53;4945179;28;20026;-95
2023/07/06 16:01:37;;;;;;;5.05;2.67;;;;;;;26.82;34.62;101637.78;4979209;28;20037;-95
2023/07/06 16:04:03;;;;;;;6.55;2.25;;;;;;;27.12;36.67;101636.63;4976656;28;20111;-93
2023/07/06 16:06:31;;;;;;;5.20;2.72;;;;;;;28.17;35.63;101636.44;4980944;28;20046;-95
2023/07/06 16:08:57;;;;;;;4.78;2.50;;;;;;;29.00;32.67;101625.16;4961443;28;20042;-95
2023/07/06 16:11:28;;;;;;;4.33;2.67;;;;;;;29.92;32.80;101622.72;4956741;28;20062;-95
2023/07/06 16:13:54;;;;;;;4.32;2.60;;;;;;;30.79;31.12;101627.41;4961343;28;20083;-93
2023/07/06 16:16:28;;;;;;;4.28;2.85;;;;;;;30.99;29.33;101629.97;4981268;28;20023;-95
2023/07/06 16:18:54;;;;;;;5.18;2.33;;;;;;;30.92;27.26;101618.84;5005255;23;20043;-94
2023/07/06 16:21:22;;;;;;;3.83;2.40;;;;;;;30.75;28.30;101617.47;4986930;28;20363;-94
2023/07/06 16:24:11;;;;;;;3.73;2.40;;;;;;;31.00;29.31;101634.34;4979334;28;20285;-95
2023/07/06 16:26:36;;;;;;;4.35;2.40;;;;;;;30.78;27.04;101630.56;4991040;28;20023;-95
2023/07/06 16:29:02;;;;;;;3.47;2.55;;;;;;;30.66;27.53;101634.38;4964053;28;20428;-95
2023/07/06 16:31:28;;;;;;;6.72;2.85;;;;;;;30.34;27.25;101620.94;4946209;28;20487;-94
2023/07/06 16:33:53;;;;;;;3.90;2.73;;;;;;;30.28;29.36;101623.25;4960991;28;20481;-93
2023/07/06 16:36:21;;;;;;;5.37;2.60;;;;;;;30.04;28.39;101611.47;4961127;28;20034;-95
2023/07/06 16:38:48;;;;;;;3.85;2.42;;;;;;;30.12;27.83;101630.94;4964657;28;20451;-95
2023/07/06 16:41:15;;;;;;;7.07;2.45;;;;;;;29.97;28.96;101597.56;4931893;29;20031;-95
2023/07/06 16:43:40;;;;;;;5.50;2.60;;;;;;;29.99;29.32;101628.38;4961183;28;20047;-94
2023/07/06 16:46:06;;;;;;;3.10;2.20;;;;;;;29.69;30.21;101618.03;4971885;28;20023;-95
2023/07/06 16:48:32;;;;;;;2.75;2.03;;;;;;;29.77;30.90;101630.78;4977789;28;20027;-94
2023/07/06 16:51:01;;;;;;;5.10;2.87;;;;;;;29.80;30.55;101609.94;4982977;28;20034;-95
2023/07/06 16:53:33;;;;;;;3.78;2.70;;;;;;;29.83;31.42;101619.41;5068830;23;20077;-86
2023/07/06 16:55:59;;;;;;;3.25;2.55;;;;;;;29.52;30.32;101627.63;4973945;28;20054;-86
2023/07/06 16:58:28;;;;;;;3.72;3.00;;;;;;;29.37;31.09;101626.63;4971716;28;20027;-86
2023/07/06 17:01:05;;;;;;;4.47;2.83;;;;;;;29.36;30.16;101625.03;4973497;28;20031;-86
2023/07/06 17:03:31;;;;;;;5.72;2.63;;;;;;;29.25;29.48;101618.47;4963547;28;20419;-87
2023/07/06 17:05:57;;;;;;;2.97;2.33;;;;;;;28.99;29.64;101612.53;4953062;28;20114;-86
2023/07/06 17:08:22;;;;;;;6.13;2.72;;;;;;;29.31;30.80;101633.56;4955099;28;20035;-85
2023/07/06 17:10:49;;;;;;;3.77;1.93;;;;;;;29.22;30.65;101630.25;4954693;28;20053;-87
2023/07/06 17:13:14;;;;;;;3.45;2.72;;;;;;;28.46;30.15;101635.09;4953702;28;20027;-85
2023/07/06 17:15:41;;;;;;;5.57;2.90;;;;;;;28.46;32.51;101615.81;4953464;28;20033;-87
2023/07/06 17:18:06;;;;;;;9.73;3.50;;;;;;;28.35;32.80;101623.03;4966921;28;20158;-86
2023/07/06 17:20:32;;;;;;;5.10;2.37;;;;;;;28.06;31.95;101627.91;4970253;28;20039;-83
2023/07/06 17:22:58;;;;;;;4.73;2.67;;;;;;;27.93;32.39;101622.53;4983724;28;20015;-86